sensor_id;sensor_type;location;lat;lon;timestamp;P1;durP1;ratioP1;P2;durP2;ratioP2
55031;SDS011;40928;51.076;7.950;2023-04-15T00:02:13;3.03;;;1.65;;
55031;SDS011;40928;51.076;7.950;2023-04-15T00:04:43;6.40;;;1.75;;
55031;SDS011;40928;51.076;7.950;2023-04-15T00:07:09;2.60;;;1.80;;
55031;SDS011;40928;51.076;7.950;2023-04-15T00:09:35;6.00;;;1.92;;
55031;SDS011;40928;51.076;7.950;2023-04-15T00:12:00;3.72;;;1.65;;
55031;SDS011;40928;51.076;7.950;2023-04-15T00:14:26;2.40;;;1.45;;
55031;SDS011;40928;51.076;7.950;2023-04-15T00:16:52;9.43;;;2.20;;
55031;SDS011;40928;51.076;7.950;2023-04-15T00:19:20;4.80;;;1.60;;
55031;SDS011;40928;51.076;7.950;2023-04-15T00:21:46;4.85;;;1.73;;
55031;SDS011;40928;51.076;7.950;2023-04-15T00:24:11;3.55;;;1.73;;
55031;SDS011;40928;51.076;7.950;2023-04-15T00:26:37;3.70;;;1.92;;
55031;SDS011;40928;51.076;7.950;2023-04-15T00:29:03;6.25;;;1.60;;
55031;SDS011;40928;51.076;7.950;2023-04-15T00:31:29;2.92;;;1.73;;
55031;SDS011;40928;51.076;7.950;2023-04-15T00:33:55;6.20;;;1.92;;
55031;SDS011;40928;51.076;7.950;2023-04-15T00:36:21;3.88;;;2.03;;
55031;SDS011;40928;51.076;7.950;2023-04-15T00:38:48;4.25;;;2.42;;
55031;SDS011;40928;51.076;7.950;2023-04-15T00:41:14;4.05;;;2.05;;
55031;SDS011;40928;51.076;7.950;2023-04-15T00:43:39;5.15;;;1.98;;
55031;SDS011;40928;51.076;7.950;2023-04-15T00:46:05;7.47;;;2.40;;
55031;SDS011;40928;51.076;7.950;2023-04-15T00:48:31;3.58;;;1.92;;
55031;SDS011;40928;51.076;7.950;2023-04-15T00:50:57;13.57;;;3.05;;
55031;SDS011;40928;51.076;7.950;2023-04-15T00:53:23;3.05;;;2.15;;
55031;SDS011;40928;51.076;7.950;2023-04-15T00:55:49;6.30;;;2.45;;
55031;SDS011;40928;51.076;7.950;2023-04-15T00:58:15;4.88;;;2.35;;
55031;SDS011;40928;51.076;7.950;2023-04-15T01:00:41;4.50;;;2.75;;
55031;SDS011;40928;51.076;7.950;2023-04-15T01:03:07;7.03;;;2.50;;
55031;SDS011;40928;51.076;7.950;2023-04-15T01:05:33;4.70;;;2.67;;
55031;SDS011;40928;51.076;7.950;2023-04-15T01:07:59;4.55;;;2.65;;
55031;SDS011;40928;51.076;7.950;2023-04-15T01:10:24;5.40;;;3.00;;
55031;SDS011;40928;51.076;7.950;2023-04-15T01:12:50;4.47;;;2.70;;
55031;SDS011;40928;51.076;7.950;2023-04-15T01:15:16;6.68;;;2.83;;
55031;SDS011;40928;51.076;7.950;2023-04-15T01:17:42;6.68;;;2.97;;
55031;SDS011;40928;51.076;7.950;2023-04-15T01:20:07;4.72;;;2.45;;
55031;SDS011;40928;51.076;7.950;2023-04-15T01:22:36;5.78;;;2.90;;
55031;SDS011;40928;51.076;7.950;2023-04-15T01:25:07;5.10;;;2.50;;
55031;SDS011;40928;51.076;7.950;2023-04-15T01:27:34;5.05;;;2.47;;
55031;SDS011;40928;51.076;7.950;2023-04-15T01:30:07;7.25;;;2.80;;
55031;SDS011;40928;51.076;7.950;2023-04-15T01:32:33;4.75;;;2.47;;
55031;SDS011;40928;51.076;7.950;2023-04-15T01:34:58;6.97;;;2.92;;
55031;SDS011;40928;51.076;7.950;2023-04-15T01:37:24;8.07;;;3.15;;
55031;SDS011;40928;51.076;7.950;2023-04-15T01:39:50;7.90;;;3.00;;
55031;SDS011;40928;51.076;7.950;2023-04-15T01:42:16;7.15;;;2.85;;
55031;SDS011;40928;51.076;7.950;2023-04-15T01:44:41;5.25;;;3.40;;
55031;SDS011;40928;51.076;7.950;2023-04-15T01:47:10;5.50;;;3.17;;
55031;SDS011;40928;51.076;7.950;2023-04-15T01:49:36;5.80;;;3.53;;
55031;SDS011;40928;51.076;7.950;2023-04-15T01:52:01;7.85;;;3.53;;
55031;SDS011;40928;51.076;7.950;2023-04-15T01:54:27;5.03;;;3.15;;
55031;SDS011;40928;51.076;7.950;2023-04-15T01:56:52;6.05;;;3.25;;
55031;SDS011;40928;51.076;7.950;2023-04-15T01:59:18;10.80;;;3.95;;
55031;SDS011;40928;51.076;7.950;2023-04-15T02:01:43;4.95;;;3.15;;
55031;SDS011;40928;51.076;7.950;2023-04-15T02:04:09;6.60;;;3.67;;
55031;SDS011;40928;51.076;7.950;2023-04-15T02:06:41;9.40;;;3.20;;
55031;SDS011;40928;51.076;7.950;2023-04-15T02:09:08;7.50;;;3.20;;
55031;SDS011;40928;51.076;7.950;2023-04-15T02:11:34;6.20;;;3.60;;
55031;SDS011;40928;51.076;7.950;2023-04-15T02:14:02;7.68;;;4.25;;
55031;SDS011;40928;51.076;7.950;2023-04-15T02:16:29;9.50;;;3.28;;
55031;SDS011;40928;51.076;7.950;2023-04-15T02:18:56;7.10;;;3.70;;
55031;SDS011;40928;51.076;7.950;2023-04-15T02:21:22;8.63;;;3.40;;
55031;SDS011;40928;51.076;7.950;2023-04-15T02:23:47;8.90;;;3.42;;
55031;SDS011;40928;51.076;7.950;2023-04-15T02:26:13;9.13;;;3.78;;
55031;SDS011;40928;51.076;7.950;2023-04-15T02:28:39;6.07;;;3.22;;
55031;SDS011;40928;51.076;7.950;2023-04-15T02:31:05;8.85;;;4.15;;
55031;SDS011;40928;51.076;7.950;2023-04-15T02:33:32;7.80;;;3.60;;
55031;SDS011;40928;51.076;7.950;2023-04-15T02:35:59;6.82;;;3.35;;
55031;SDS011;40928;51.076;7.950;2023-04-15T02:45:00;7.32;;;3.38;;
55031;SDS011;40928;51.076;7.950;2023-04-15T02:47:30;7.28;;;3.15;;
55031;SDS011;40928;51.076;7.950;2023-04-15T02:49:56;5.18;;;2.80;;
55031;SDS011;40928;51.076;7.950;2023-04-15T02:52:23;8.68;;;3.92;;
55031;SDS011;40928;51.076;7.950;2023-04-15T02:54:49;6.85;;;4.05;;
55031;SDS011;40928;51.076;7.950;2023-04-15T02:57:14;8.68;;;3.95;;
55031;SDS011;40928;51.076;7.950;2023-04-15T02:59:40;10.43;;;4.10;;
55031;SDS011;40928;51.076;7.950;2023-04-15T03:02:05;7.20;;;3.50;;
55031;SDS011;40928;51.076;7.950;2023-04-15T03:04:32;4.85;;;3.20;;
55031;SDS011;40928;51.076;7.950;2023-04-15T03:06:59;4.72;;;2.92;;
55031;SDS011;40928;51.076;7.950;2023-04-15T03:09:26;17.35;;;4.03;;
55031;SDS011;40928;51.076;7.950;2023-04-15T03:11:53;7.40;;;3.38;;
55031;SDS011;40928;51.076;7.950;2023-04-15T03:14:19;7.38;;;3.10;;
55031;SDS011;40928;51.076;7.950;2023-04-15T03:16:48;7.35;;;4.03;;
55031;SDS011;40928;51.076;7.950;2023-04-15T03:19:15;8.55;;;3.85;;
55031;SDS011;40928;51.076;7.950;2023-04-15T03:21:42;8.50;;;4.07;;
55031;SDS011;40928;51.076;7.950;2023-04-15T03:24:07;5.82;;;3.25;;
55031;SDS011;40928;51.076;7.950;2023-04-15T03:26:33;9.85;;;4.70;;
55031;SDS011;40928;51.076;7.950;2023-04-15T03:29:02;5.32;;;3.80;;
55031;SDS011;40928;51.076;7.950;2023-04-15T03:31:28;6.53;;;3.63;;
55031;SDS011;40928;51.076;7.950;2023-04-15T03:33:53;6.57;;;3.75;;
55031;SDS011;40928;51.076;7.950;2023-04-15T03:36:19;7.40;;;3.88;;
55031;SDS011;40928;51.076;7.950;2023-04-15T03:38:44;5.80;;;3.22;;
55031;SDS011;40928;51.076;7.950;2023-04-15T03:41:10;7.70;;;4.53;;
55031;SDS011;40928;51.076;7.950;2023-04-15T03:43:36;6.70;;;3.70;;
55031;SDS011;40928;51.076;7.950;2023-04-15T03:46:01;7.88;;;4.13;;
55031;SDS011;40928;51.076;7.950;2023-04-15T03:48:27;10.18;;;4.10;;
55031;SDS011;40928;51.076;7.950;2023-04-15T03:50:52;8.30;;;4.47;;
55031;SDS011;40928;51.076;7.950;2023-04-15T03:53:18;8.48;;;4.03;;
55031;SDS011;40928;51.076;7.950;2023-04-15T03:55:46;6.43;;;3.65;;
55031;SDS011;40928;51.076;7.950;2023-04-15T03:58:11;9.60;;;4.85;;
55031;SDS011;40928;51.076;7.950;2023-04-15T04:00:37;11.35;;;4.65;;
55031;SDS011;40928;51.076;7.950;2023-04-15T04:03:03;9.43;;;4.25;;
55031;SDS011;40928;51.076;7.950;2023-04-15T04:05:29;7.95;;;4.88;;
55031;SDS011;40928;51.076;7.950;2023-04-15T04:07:55;7.05;;;3.83;;
55031;SDS011;40928;51.076;7.950;2023-04-15T04:10:20;6.95;;;4.20;;
55031;SDS011;40928;51.076;7.950;2023-04-15T04:12:46;6.82;;;4.72;;
55031;SDS011;40928;51.076;7.950;2023-04-15T04:15:11;5.25;;;3.60;;
55031;SDS011;40928;51.076;7.950;2023-04-15T04:17:37;7.85;;;4.30;;
55031;SDS011;40928;51.076;7.950;2023-04-15T04:20:02;8.48;;;3.80;;
55031;SDS011;40928;51.076;7.950;2023-04-15T04:22:28;8.75;;;4.45;;
55031;SDS011;40928;51.076;7.950;2023-04-15T04:24:53;11.27;;;4.57;;
55031;SDS011;40928;51.076;7.950;2023-04-15T04:27:19;8.55;;;4.65;;
55031;SDS011;40928;51.076;7.950;2023-04-15T04:29:45;7.15;;;3.60;;
55031;SDS011;40928;51.076;7.950;2023-04-15T04:32:11;7.80;;;4.45;;
55031;SDS011;40928;51.076;7.950;2023-04-15T04:34:37;8.35;;;4.15;;
55031;SDS011;40928;51.076;7.950;2023-04-15T04:37:02;8.35;;;4.18;;
55031;SDS011;40928;51.076;7.950;2023-04-15T04:39:28;10.18;;;4.80;;
55031;SDS011;40928;51.076;7.950;2023-04-15T04:41:53;10.65;;;4.50;;
55031;SDS011;40928;51.076;7.950;2023-04-15T04:44:20;7.93;;;4.65;;
55031;SDS011;40928;51.076;7.950;2023-04-15T04:46:46;9.77;;;4.07;;
55031;SDS011;40928;51.076;7.950;2023-04-15T04:49:11;11.18;;;4.90;;
55031;SDS011;40928;51.076;7.950;2023-04-15T04:51:37;7.35;;;4.55;;
55031;SDS011;40928;51.076;7.950;2023-04-15T04:54:02;8.18;;;4.68;;
55031;SDS011;40928;51.076;7.950;2023-04-15T04:56:28;8.93;;;5.47;;
55031;SDS011;40928;51.076;7.950;2023-04-15T04:58:53;10.15;;;6.18;;
55031;SDS011;40928;51.076;7.950;2023-04-15T05:01:19;9.55;;;5.47;;
55031;SDS011;40928;51.076;7.950;2023-04-15T05:03:45;10.90;;;6.32;;
55031;SDS011;40928;51.076;7.950;2023-04-15T05:06:10;9.27;;;5.90;;
55031;SDS011;40928;51.076;7.950;2023-04-15T05:08:36;9.20;;;5.38;;
55031;SDS011;40928;51.076;7.950;2023-04-15T05:11:02;8.40;;;5.22;;
55031;SDS011;40928;51.076;7.950;2023-04-15T05:13:28;9.98;;;5.10;;
55031;SDS011;40928;51.076;7.950;2023-04-15T05:15:54;9.30;;;5.38;;
55031;SDS011;40928;51.076;7.950;2023-04-15T05:18:20;8.73;;;5.22;;
55031;SDS011;40928;51.076;7.950;2023-04-15T05:20:45;7.63;;;4.85;;
55031;SDS011;40928;51.076;7.950;2023-04-15T05:23:11;9.32;;;5.30;;
55031;SDS011;40928;51.076;7.950;2023-04-15T05:25:36;9.07;;;5.70;;
55031;SDS011;40928;51.076;7.950;2023-04-15T05:28:02;11.48;;;4.82;;
55031;SDS011;40928;51.076;7.950;2023-04-15T05:30:27;8.85;;;5.50;;
55031;SDS011;40928;51.076;7.950;2023-04-15T05:32:53;10.32;;;6.25;;
55031;SDS011;40928;51.076;7.950;2023-04-15T05:35:18;10.27;;;6.07;;
55031;SDS011;40928;51.076;7.950;2023-04-15T05:37:44;9.68;;;5.45;;
55031;SDS011;40928;51.076;7.950;2023-04-15T05:40:10;9.45;;;5.32;;
55031;SDS011;40928;51.076;7.950;2023-04-15T05:42:35;11.77;;;6.07;;
55031;SDS011;40928;51.076;7.950;2023-04-15T05:45:01;11.13;;;6.22;;
55031;SDS011;40928;51.076;7.950;2023-04-15T05:47:29;8.73;;;4.97;;
55031;SDS011;40928;51.076;7.950;2023-04-15T05:49:55;10.80;;;5.80;;
55031;SDS011;40928;51.076;7.950;2023-04-15T05:52:30;9.15;;;5.60;;
55031;SDS011;40928;51.076;7.950;2023-04-15T05:54:55;9.25;;;5.38;;
55031;SDS011;40928;51.076;7.950;2023-04-15T05:57:21;11.18;;;6.07;;
55031;SDS011;40928;51.076;7.950;2023-04-15T05:59:47;9.90;;;5.32;;
55031;SDS011;40928;51.076;7.950;2023-04-15T06:02:13;10.90;;;5.70;;
55031;SDS011;40928;51.076;7.950;2023-04-15T06:04:39;12.82;;;6.72;;
55031;SDS011;40928;51.076;7.950;2023-04-15T06:07:04;15.02;;;6.80;;
55031;SDS011;40928;51.076;7.950;2023-04-15T06:09:30;13.75;;;6.68;;
55031;SDS011;40928;51.076;7.950;2023-04-15T06:11:55;12.20;;;6.05;;
55031;SDS011;40928;51.076;7.950;2023-04-15T06:14:21;15.13;;;6.95;;
55031;SDS011;40928;51.076;7.950;2023-04-15T06:16:47;11.32;;;6.30;;
55031;SDS011;40928;51.076;7.950;2023-04-15T06:19:13;10.55;;;5.35;;
55031;SDS011;40928;51.076;7.950;2023-04-15T06:21:38;12.00;;;6.45;;
55031;SDS011;40928;51.076;7.950;2023-04-15T06:24:04;12.32;;;6.20;;
55031;SDS011;40928;51.076;7.950;2023-04-15T06:26:30;10.15;;;5.60;;
55031;SDS011;40928;51.076;7.950;2023-04-15T06:28:55;12.30;;;7.10;;
55031;SDS011;40928;51.076;7.950;2023-04-15T06:31:21;10.93;;;6.90;;
55031;SDS011;40928;51.076;7.950;2023-04-15T06:33:47;12.80;;;8.07;;
55031;SDS011;40928;51.076;7.950;2023-04-15T06:36:12;14.18;;;7.38;;
55031;SDS011;40928;51.076;7.950;2023-04-15T06:38:38;10.32;;;6.55;;
55031;SDS011;40928;51.076;7.950;2023-04-15T06:41:03;14.95;;;7.43;;
55031;SDS011;40928;51.076;7.950;2023-04-15T06:43:29;14.23;;;7.57;;
55031;SDS011;40928;51.076;7.950;2023-04-15T06:45:55;14.82;;;8.23;;
55031;SDS011;40928;51.076;7.950;2023-04-15T06:48:24;12.32;;;6.78;;
55031;SDS011;40928;51.076;7.950;2023-04-15T06:50:55;11.75;;;6.75;;
55031;SDS011;40928;51.076;7.950;2023-04-15T06:53:25;12.77;;;7.47;;
55031;SDS011;40928;51.076;7.950;2023-04-15T06:55:54;12.05;;;7.18;;
55031;SDS011;40928;51.076;7.950;2023-04-15T06:58:20;9.60;;;6.20;;
55031;SDS011;40928;51.076;7.950;2023-04-15T07:00:46;11.52;;;6.80;;
55031;SDS011;40928;51.076;7.950;2023-04-15T07:03:12;11.40;;;6.55;;
55031;SDS011;40928;51.076;7.950;2023-04-15T07:05:38;13.05;;;7.80;;
55031;SDS011;40928;51.076;7.950;2023-04-15T07:08:04;13.57;;;8.30;;
55031;SDS011;40928;51.076;7.950;2023-04-15T07:10:29;13.20;;;7.53;;
55031;SDS011;40928;51.076;7.950;2023-04-15T07:12:55;16.55;;;7.70;;
55031;SDS011;40928;51.076;7.950;2023-04-15T07:15:21;12.73;;;7.45;;
55031;SDS011;40928;51.076;7.950;2023-04-15T07:17:47;9.10;;;6.05;;
55031;SDS011;40928;51.076;7.950;2023-04-15T07:20:13;8.63;;;5.43;;
55031;SDS011;40928;51.076;7.950;2023-04-15T07:22:39;10.82;;;5.13;;
55031;SDS011;40928;51.076;7.950;2023-04-15T07:25:05;8.55;;;5.47;;
55031;SDS011;40928;51.076;7.950;2023-04-15T07:27:31;10.07;;;5.43;;
55031;SDS011;40928;51.076;7.950;2023-04-15T07:29:57;10.60;;;5.57;;
55031;SDS011;40928;51.076;7.950;2023-04-15T07:32:22;12.05;;;6.68;;
55031;SDS011;40928;51.076;7.950;2023-04-15T07:34:48;13.40;;;6.07;;
55031;SDS011;40928;51.076;7.950;2023-04-15T07:37:13;8.70;;;5.38;;
55031;SDS011;40928;51.076;7.950;2023-04-15T07:39:39;14.15;;;5.60;;
55031;SDS011;40928;51.076;7.950;2023-04-15T07:42:04;8.50;;;5.63;;
55031;SDS011;40928;51.076;7.950;2023-04-15T07:44:30;9.57;;;5.65;;
55031;SDS011;40928;51.076;7.950;2023-04-15T07:46:55;11.48;;;6.68;;
55031;SDS011;40928;51.076;7.950;2023-04-15T07:49:21;9.68;;;5.35;;
55031;SDS011;40928;51.076;7.950;2023-04-15T07:51:47;10.85;;;6.43;;
55031;SDS011;40928;51.076;7.950;2023-04-15T07:54:16;9.27;;;5.47;;
55031;SDS011;40928;51.076;7.950;2023-04-15T07:56:42;9.63;;;5.55;;
55031;SDS011;40928;51.076;7.950;2023-04-15T07:59:08;9.25;;;5.78;;
55031;SDS011;40928;51.076;7.950;2023-04-15T08:01:34;9.82;;;5.25;;
55031;SDS011;40928;51.076;7.950;2023-04-15T08:04:00;8.68;;;4.90;;
55031;SDS011;40928;51.076;7.950;2023-04-15T08:06:29;9.55;;;5.32;;
55031;SDS011;40928;51.076;7.950;2023-04-15T08:08:55;9.75;;;5.47;;
55031;SDS011;40928;51.076;7.950;2023-04-15T08:11:21;9.05;;;4.93;;
55031;SDS011;40928;51.076;7.950;2023-04-15T08:13:47;8.80;;;4.85;;
55031;SDS011;40928;51.076;7.950;2023-04-15T08:18:42;8.88;;;4.78;;
55031;SDS011;40928;51.076;7.950;2023-04-15T08:21:08;10.93;;;5.47;;
55031;SDS011;40928;51.076;7.950;2023-04-15T08:23:34;9.35;;;4.93;;
55031;SDS011;40928;51.076;7.950;2023-04-15T08:26:00;8.80;;;4.72;;
55031;SDS011;40928;51.076;7.950;2023-04-15T08:28:26;12.27;;;4.70;;
55031;SDS011;40928;51.076;7.950;2023-04-15T08:30:51;7.78;;;4.50;;
55031;SDS011;40928;51.076;7.950;2023-04-15T08:33:17;7.18;;;4.40;;
55031;SDS011;40928;51.076;7.950;2023-04-15T08:35:43;7.70;;;4.15;;
55031;SDS011;40928;51.076;7.950;2023-04-15T08:38:08;8.55;;;4.63;;
55031;SDS011;40928;51.076;7.950;2023-04-15T08:40:40;7.53;;;4.22;;
55031;SDS011;40928;51.076;7.950;2023-04-15T08:43:09;7.57;;;4.55;;
55031;SDS011;40928;51.076;7.950;2023-04-15T08:45:37;6.57;;;4.32;;
55031;SDS011;40928;51.076;7.950;2023-04-15T08:48:04;7.68;;;4.13;;
55031;SDS011;40928;51.076;7.950;2023-04-15T08:50:30;7.40;;;4.35;;
55031;SDS011;40928;51.076;7.950;2023-04-15T08:52:57;7.97;;;4.13;;
55031;SDS011;40928;51.076;7.950;2023-04-15T08:55:25;5.80;;;3.53;;
55031;SDS011;40928;51.076;7.950;2023-04-15T08:57:55;5.97;;;3.15;;
55031;SDS011;40928;51.076;7.950;2023-04-15T09:00:21;6.30;;;3.60;;
55031;SDS011;40928;51.076;7.950;2023-04-15T09:02:47;4.40;;;3.20;;
55031;SDS011;40928;51.076;7.950;2023-04-15T09:05:13;6.18;;;3.30;;
55031;SDS011;40928;51.076;7.950;2023-04-15T09:07:38;5.45;;;3.17;;
55031;SDS011;40928;51.076;7.950;2023-04-15T09:10:04;6.70;;;2.90;;
55031;SDS011;40928;51.076;7.950;2023-04-15T09:12:33;5.97;;;3.13;;
55031;SDS011;40928;51.076;7.950;2023-04-15T09:15:00;5.60;;;3.60;;
55031;SDS011;40928;51.076;7.950;2023-04-15T09:17:26;7.53;;;2.97;;
55031;SDS011;40928;51.076;7.950;2023-04-15T09:20:12;5.82;;;3.20;;
55031;SDS011;40928;51.076;7.950;2023-04-15T09:22:39;6.32;;;3.25;;
55031;SDS011;40928;51.076;7.950;2023-04-15T09:25:23;7.20;;;2.72;;
55031;SDS011;40928;51.076;7.950;2023-04-15T09:27:54;9.30;;;3.55;;
55031;SDS011;40928;51.076;7.950;2023-04-15T09:30:21;5.38;;;2.78;;
55031;SDS011;40928;51.076;7.950;2023-04-15T09:35:23;4.93;;;2.60;;
55031;SDS011;40928;51.076;7.950;2023-04-15T09:37:49;6.47;;;3.80;;
55031;SDS011;40928;51.076;7.950;2023-04-15T09:40:31;6.50;;;3.42;;
55031;SDS011;40928;51.076;7.950;2023-04-15T09:43:01;5.47;;;3.70;;
55031;SDS011;40928;51.076;7.950;2023-04-15T09:45:31;5.93;;;3.58;;
55031;SDS011;40928;51.076;7.950;2023-04-15T09:47:58;6.68;;;3.95;;
55031;SDS011;40928;51.076;7.950;2023-04-15T09:50:28;7.90;;;4.57;;
55031;SDS011;40928;51.076;7.950;2023-04-15T09:52:53;6.82;;;4.78;;
55031;SDS011;40928;51.076;7.950;2023-04-15T09:55:20;8.40;;;5.40;;
55031;SDS011;40928;51.076;7.950;2023-04-15T09:57:45;9.57;;;6.32;;
55031;SDS011;40928;51.076;7.950;2023-04-15T10:00:11;8.73;;;6.03;;
55031;SDS011;40928;51.076;7.950;2023-04-15T10:02:40;10.85;;;6.53;;
55031;SDS011;40928;51.076;7.950;2023-04-15T10:05:07;8.60;;;5.95;;
55031;SDS011;40928;51.076;7.950;2023-04-15T10:07:35;7.78;;;5.45;;
55031;SDS011;40928;51.076;7.950;2023-04-15T10:10:02;8.93;;;5.10;;
55031;SDS011;40928;51.076;7.950;2023-04-15T10:12:28;8.15;;;5.78;;
55031;SDS011;40928;51.076;7.950;2023-04-15T10:14:55;7.95;;;5.45;;
55031;SDS011;40928;51.076;7.950;2023-04-15T10:17:24;10.38;;;6.15;;
55031;SDS011;40928;51.076;7.950;2023-04-15T10:19:52;7.25;;;4.70;;
55031;SDS011;40928;51.076;7.950;2023-04-15T10:22:18;10.40;;;4.68;;
55031;SDS011;40928;51.076;7.950;2023-04-15T10:24:44;7.35;;;5.07;;
55031;SDS011;40928;51.076;7.950;2023-04-15T10:27:11;7.35;;;5.22;;
55031;SDS011;40928;51.076;7.950;2023-04-15T10:29:36;9.30;;;5.40;;
55031;SDS011;40928;51.076;7.950;2023-04-15T10:32:02;9.35;;;5.75;;
55031;SDS011;40928;51.076;7.950;2023-04-15T10:34:29;7.32;;;5.68;;
55031;SDS011;40928;51.076;7.950;2023-04-15T10:37:00;9.90;;;5.82;;
55031;SDS011;40928;51.076;7.950;2023-04-15T10:42:08;9.48;;;5.25;;
55031;SDS011;40928;51.076;7.950;2023-04-15T10:44:43;7.47;;;4.45;;
55031;SDS011;40928;51.076;7.950;2023-04-15T10:47:15;9.75;;;5.18;;
55031;SDS011;40928;51.076;7.950;2023-04-15T10:52:12;11.63;;;6.40;;
55031;SDS011;40928;51.076;7.950;2023-04-15T10:54:39;8.98;;;5.55;;
55031;SDS011;40928;51.076;7.950;2023-04-15T10:59:37;9.13;;;6.00;;
55031;SDS011;40928;51.076;7.950;2023-04-15T11:05:18;7.35;;;4.65;;
55031;SDS011;40928;51.076;7.950;2023-04-15T11:12:38;6.30;;;4.57;;
55031;SDS011;40928;51.076;7.950;2023-04-15T11:18:07;6.03;;;4.20;;
55031;SDS011;40928;51.076;7.950;2023-04-15T11:20:34;6.28;;;4.05;;
55031;SDS011;40928;51.076;7.950;2023-04-15T11:23:00;5.90;;;3.78;;
55031;SDS011;40928;51.076;7.950;2023-04-15T11:25:27;7.03;;;4.13;;
55031;SDS011;40928;51.076;7.950;2023-04-15T11:27:53;6.78;;;4.40;;
55031;SDS011;40928;51.076;7.950;2023-04-15T11:30:38;6.13;;;4.15;;
55031;SDS011;40928;51.076;7.950;2023-04-15T11:33:07;6.85;;;3.78;;
55031;SDS011;40928;51.076;7.950;2023-04-15T11:35:34;7.03;;;4.25;;
55031;SDS011;40928;51.076;7.950;2023-04-15T11:38:10;5.85;;;3.83;;
55031;SDS011;40928;51.076;7.950;2023-04-15T11:40:37;7.40;;;4.15;;
55031;SDS011;40928;51.076;7.950;2023-04-15T11:43:04;9.95;;;4.70;;
55031;SDS011;40928;51.076;7.950;2023-04-15T11:45:33;6.18;;;4.13;;
55031;SDS011;40928;51.076;7.950;2023-04-15T11:48:04;5.20;;;3.83;;
55031;SDS011;40928;51.076;7.950;2023-04-15T11:50:32;8.35;;;4.95;;
55031;SDS011;40928;51.076;7.950;2023-04-15T11:53:00;8.32;;;5.45;;
55031;SDS011;40928;51.076;7.950;2023-04-15T11:55:27;7.95;;;5.25;;
55031;SDS011;40928;51.076;7.950;2023-04-15T11:58:13;8.95;;;4.80;;
55031;SDS011;40928;51.076;7.950;2023-04-15T12:00:59;9.23;;;5.22;;
55031;SDS011;40928;51.076;7.950;2023-04-15T12:03:26;6.97;;;4.07;;
55031;SDS011;40928;51.076;7.950;2023-04-15T12:09:13;6.88;;;3.08;;
55031;SDS011;40928;51.076;7.950;2023-04-15T12:11:18;4.40;;;2.70;;
55031;SDS011;40928;51.076;7.950;2023-04-15T12:13:47;4.35;;;2.45;;
55031;SDS011;40928;51.076;7.950;2023-04-15T12:16:17;6.18;;;2.75;;
55031;SDS011;40928;51.076;7.950;2023-04-15T12:18:44;5.32;;;2.30;;
55031;SDS011;40928;51.076;7.950;2023-04-15T12:21:11;5.03;;;3.00;;
55031;SDS011;40928;51.076;7.950;2023-04-15T12:23:37;3.75;;;1.85;;
55031;SDS011;40928;51.076;7.950;2023-04-15T12:26:04;3.75;;;2.55;;
55031;SDS011;40928;51.076;7.950;2023-04-15T12:28:33;4.25;;;2.40;;
55031;SDS011;40928;51.076;7.950;2023-04-15T12:30:59;4.05;;;2.83;;
55031;SDS011;40928;51.076;7.950;2023-04-15T12:33:49;4.07;;;2.78;;
55031;SDS011;40928;51.076;7.950;2023-04-15T12:36:15;4.18;;;2.30;;
55031;SDS011;40928;51.076;7.950;2023-04-15T12:38:40;3.53;;;1.98;;
55031;SDS011;40928;51.076;7.950;2023-04-15T12:41:06;5.95;;;2.40;;
55031;SDS011;40928;51.076;7.950;2023-04-15T12:43:31;3.42;;;2.05;;
55031;SDS011;40928;51.076;7.950;2023-04-15T12:45:57;2.95;;;1.70;;
55031;SDS011;40928;51.076;7.950;2023-04-15T12:48:22;3.08;;;1.48;;
55031;SDS011;40928;51.076;7.950;2023-04-15T12:50:48;4.10;;;1.88;;
55031;SDS011;40928;51.076;7.950;2023-04-15T12:53:13;2.58;;;1.58;;
55031;SDS011;40928;51.076;7.950;2023-04-15T12:55:39;3.08;;;2.08;;
55031;SDS011;40928;51.076;7.950;2023-04-15T12:58:04;2.33;;;1.45;;
55031;SDS011;40928;51.076;7.950;2023-04-15T13:00:30;3.13;;;1.90;;
55031;SDS011;40928;51.076;7.950;2023-04-15T13:02:58;2.97;;;1.83;;
55031;SDS011;40928;51.076;7.950;2023-04-15T13:05:23;2.80;;;1.55;;
55031;SDS011;40928;51.076;7.950;2023-04-15T13:07:49;3.00;;;1.65;;
55031;SDS011;40928;51.076;7.950;2023-04-15T13:10:15;3.63;;;1.48;;
55031;SDS011;40928;51.076;7.950;2023-04-15T13:12:41;2.20;;;1.30;;
55031;SDS011;40928;51.076;7.950;2023-04-15T13:15:06;4.50;;;1.40;;
55031;SDS011;40928;51.076;7.950;2023-04-15T13:17:36;3.70;;;1.98;;
55031;SDS011;40928;51.076;7.950;2023-04-15T13:20:02;3.03;;;1.30;;
55031;SDS011;40928;51.076;7.950;2023-04-15T13:22:27;2.50;;;1.52;;
55031;SDS011;40928;51.076;7.950;2023-04-15T13:24:53;3.00;;;1.60;;
55031;SDS011;40928;51.076;7.950;2023-04-15T13:27:18;2.45;;;1.42;;
55031;SDS011;40928;51.076;7.950;2023-04-15T13:29:44;2.58;;;1.52;;
55031;SDS011;40928;51.076;7.950;2023-04-15T13:32:09;2.28;;;1.20;;
55031;SDS011;40928;51.076;7.950;2023-04-15T13:34:35;2.35;;;1.25;;
55031;SDS011;40928;51.076;7.950;2023-04-15T13:37:06;2.40;;;1.45;;
55031;SDS011;40928;51.076;7.950;2023-04-15T13:39:33;2.88;;;1.33;;
55031;SDS011;40928;51.076;7.950;2023-04-15T13:41:58;2.10;;;1.33;;
55031;SDS011;40928;51.076;7.950;2023-04-15T13:44:24;1.75;;;1.30;;
55031;SDS011;40928;51.076;7.950;2023-04-15T13:46:51;2.00;;;1.13;;
55031;SDS011;40928;51.076;7.950;2023-04-15T13:49:16;2.72;;;1.48;;
55031;SDS011;40928;51.076;7.950;2023-04-15T13:51:42;2.33;;;1.33;;
55031;SDS011;40928;51.076;7.950;2023-04-15T13:54:07;2.47;;;1.40;;
55031;SDS011;40928;51.076;7.950;2023-04-15T13:56:33;2.50;;;1.30;;
55031;SDS011;40928;51.076;7.950;2023-04-15T13:58:58;2.53;;;1.52;;
55031;SDS011;40928;51.076;7.950;2023-04-15T14:01:26;2.05;;;1.33;;
55031;SDS011;40928;51.076;7.950;2023-04-15T14:03:52;2.35;;;1.38;;
55031;SDS011;40928;51.076;7.950;2023-04-15T14:06:18;4.07;;;1.60;;
55031;SDS011;40928;51.076;7.950;2023-04-15T14:08:43;2.25;;;1.55;;
55031;SDS011;40928;51.076;7.950;2023-04-15T14:11:09;1.98;;;1.27;;
55031;SDS011;40928;51.076;7.950;2023-04-15T14:13:35;2.40;;;1.63;;
55031;SDS011;40928;51.076;7.950;2023-04-15T14:16:00;4.55;;;1.83;;
55031;SDS011;40928;51.076;7.950;2023-04-15T14:18:26;2.40;;;1.75;;
55031;SDS011;40928;51.076;7.950;2023-04-15T14:20:52;2.10;;;1.27;;
55031;SDS011;40928;51.076;7.950;2023-04-15T14:23:17;4.15;;;1.50;;
55031;SDS011;40928;51.076;7.950;2023-04-15T14:25:43;2.58;;;1.45;;
55031;SDS011;40928;51.076;7.950;2023-04-15T14:28:08;1.83;;;1.55;;
55031;SDS011;40928;51.076;7.950;2023-04-15T14:30:34;2.97;;;1.92;;
55031;SDS011;40928;51.076;7.950;2023-04-15T14:32:59;2.05;;;1.45;;
55031;SDS011;40928;51.076;7.950;2023-04-15T14:35:25;2.38;;;1.63;;
55031;SDS011;40928;51.076;7.950;2023-04-15T14:37:51;2.33;;;1.55;;
55031;SDS011;40928;51.076;7.950;2023-04-15T14:40:18;3.10;;;1.58;;
55031;SDS011;40928;51.076;7.950;2023-04-15T14:42:44;2.97;;;1.67;;
55031;SDS011;40928;51.076;7.950;2023-04-15T14:45:10;2.38;;;1.60;;
55031;SDS011;40928;51.076;7.950;2023-04-15T14:47:35;2.35;;;1.95;;
55031;SDS011;40928;51.076;7.950;2023-04-15T14:50:01;3.80;;;1.50;;
55031;SDS011;40928;51.076;7.950;2023-04-15T14:52:27;2.58;;;1.38;;
55031;SDS011;40928;51.076;7.950;2023-04-15T14:54:54;2.33;;;1.25;;
55031;SDS011;40928;51.076;7.950;2023-04-15T14:57:20;2.40;;;1.33;;
55031;SDS011;40928;51.076;7.950;2023-04-15T14:59:45;2.15;;;1.35;;
55031;SDS011;40928;51.076;7.950;2023-04-15T15:02:11;2.25;;;1.50;;
55031;SDS011;40928;51.076;7.950;2023-04-15T15:04:37;1.63;;;1.25;;
55031;SDS011;40928;51.076;7.950;2023-04-15T15:07:04;2.03;;;1.50;;
55031;SDS011;40928;51.076;7.950;2023-04-15T15:09:30;4.20;;;1.60;;
55031;SDS011;40928;51.076;7.950;2023-04-15T15:11:56;2.53;;;1.20;;
55031;SDS011;40928;51.076;7.950;2023-04-15T15:14:21;3.45;;;1.50;;
55031;SDS011;40928;51.076;7.950;2023-04-15T15:16:47;2.40;;;1.30;;